Time;durP1;ratioP1;P1;durP2;ratioP2;P2;SDS_P1;SDS_P2;PMS_P1;PMS_P2;Temp;Humidity;BMP_temperature;BMP_pressure;BME280_temperature;BME280_humidity;BME280_pressure;Samples;Min_cycle;Max_cycle;Signal;HPM_P1;HPM_P2
2021/06/19 00:02:08;;;;;;;13.57;10.10;;;17.40;99.90;;;18.44;63.13;94242.25;5071229;28;20684;-67
2021/06/19 00:04:34;;;;;;;14.30;9.93;;;17.40;99.90;;;18.49;63.14;94232.50;5090985;28;20252;-68
2021/06/19 00:07:03;;;;;;;11.57;9.37;;;17.10;99.90;;;18.47;63.29;94248.13;5083699;28;20266;-69
2021/06/19 00:09:31;;;;;;;13.80;9.50;;;17.50;99.90;;;18.41;63.39;94245.56;5072806;28;20205;-69
2021/06/19 00:11:57;;;;;;;12.40;9.80;;;17.40;99.90;;;18.42;63.21;94249.03;5067658;28;20225;-69
2021/06/19 00:14:26;;;;;;;12.67;10.57;;;17.40;99.90;;;18.41;63.63;94255.50;5090640;28;20201;-68
2021/06/19 00:16:54;;;;;;;15.57;11.10;;;17.30;99.90;;;18.44;63.85;94258.38;5087556;28;20223;-69
2021/06/19 00:19:20;;;;;;;12.13;9.83;;;17.30;99.90;;;18.47;63.89;94253.50;5072170;28;20197;-68
2021/06/19 00:21:46;;;;;;;12.13;10.03;;;17.40;99.90;;;18.45;64.06;94268.00;5070942;28;20951;-67
2021/06/19 00:24:22;;;;;;;12.13;10.67;;;17.30;99.90;;;18.40;63.93;94261.94;5072943;28;20190;-67
2021/06/19 00:26:55;;;;;;;14.40;10.50;;;17.30;99.90;;;18.39;64.21;94271.91;5086439;28;20208;-69
2021/06/19 00:29:21;;;;;;;14.13;10.57;;;17.30;99.90;;;18.35;64.63;94265.56;5088875;28;20659;-67
2021/06/19 00:31:47;;;;;;;10.77;9.67;;;17.20;99.90;;;18.36;64.67;94275.22;5085965;28;20202;-69
2021/06/19 00:34:13;;;;;;;14.10;10.43;;;17.30;99.90;;;18.30;64.44;94271.03;5088671;28;20279;-68
2021/06/19 00:36:39;;;;;;;12.00;10.30;;;17.20;99.90;;;18.28;64.60;94257.13;5088696;28;20223;-68
2021/06/19 00:39:06;;;;;;;11.20;9.90;;;17.20;99.90;;;18.26;64.65;94269.28;5072107;28;20196;-68
2021/06/19 00:41:34;;;;;;;11.63;9.63;;;17.20;99.90;;;18.24;64.81;94260.72;5088374;28;20555;-68
2021/06/19 00:44:15;;;;;;;10.63;9.47;;;17.20;99.90;;;18.11;65.04;94270.41;5071430;28;20188;-67
2021/06/19 00:46:43;;;;;;;10.57;9.20;;;17.10;99.90;;;18.10;64.99;94276.84;5087567;28;20193;-68
2021/06/19 00:49:10;;;;;;;12.23;10.37;;;17.00;99.90;;;18.03;65.18;94267.66;5086327;28;20196;-67
2021/06/19 00:51:36;;;;;;;13.00;9.30;;;17.00;99.90;;;18.03;65.34;94279.16;5066673;28;20197;-67
2021/06/19 00:54:04;;;;;;;14.20;10.00;;;17.00;99.90;;;17.94;65.30;94265.66;5053767;28;20201;-70
2021/06/19 00:56:36;;;;;;;14.67;10.73;;;16.90;99.90;;;17.98;65.51;94287.31;5071623;28;20282;-69
2021/06/19 00:59:07;;;;;;;13.03;10.47;;;16.90;99.90;;;17.97;65.73;94271.50;5086722;28;20270;-68
2021/06/19 01:01:36;;;;;;;17.57;10.47;;;16.90;99.90;;;17.91;65.73;94276.19;5066934;28;20193;-68
2021/06/19 01:04:08;;;;;;;13.30;10.73;;;16.90;99.90;;;17.89;65.84;94281.88;5054821;28;20219;-68
2021/06/19 01:06:38;;;;;;;16.30;10.80;;;16.80;99.90;;;17.85;65.95;94267.47;5071482;28;20203;-67
2021/06/19 01:09:09;;;;;;;12.67;10.60;;;16.80;99.90;;;17.86;65.98;94277.09;5063887;28;20188;-67
2021/06/19 01:11:39;;;;;;;13.40;11.13;;;16.80;99.90;;;17.83;66.09;94274.22;5081792;28;20200;-68
2021/06/19 01:14:07;;;;;;;14.43;11.57;;;16.70;99.90;;;17.78;65.94;94269.78;5088153;28;20200;-67
2021/06/19 01:16:39;;;;;;;14.73;11.00;;;16.70;99.90;;;17.78;66.38;94282.38;5070482;28;20213;-70
2021/06/19 01:19:05;;;;;;;13.30;10.70;;;16.70;99.90;;;17.73;66.22;94285.94;5086967;28;20208;-67
2021/06/19 01:21:35;;;;;;;14.73;10.80;;;16.60;99.90;;;17.77;66.47;94296.88;5088100;28;20772;-67
2021/06/19 01:24:01;;;;;;;15.63;11.53;;;16.70;99.90;;;17.61;66.47;94282.97;5065668;28;20188;-70
2021/06/19 01:26:31;;;;;;;12.80;11.47;;;16.60;99.90;;;17.64;66.57;94284.25;5088422;28;20204;-67
2021/06/19 01:28:59;;;;;;;17.70;11.93;;;16.60;99.90;;;17.61;66.84;94280.31;5086596;28;20227;-69
2021/06/19 01:31:28;;;;;;;18.90;11.80;;;16.60;99.90;;;17.62;66.92;94273.06;5086577;28;20196;-68
2021/06/19 01:33:55;;;;;;;21.20;12.43;;;16.50;99.90;;;17.67;66.79;94275.63;5069831;28;20194;-67
2021/06/19 01:36:22;;;;;;;16.83;11.17;;;16.50;99.90;;;17.67;67.09;94273.75;5087399;28;20217;-68
2021/06/19 01:38:57;;;;;;;12.87;11.53;;;16.50;99.90;;;17.69;67.08;94273.47;5086304;28;20203;-67
2021/06/19 01:41:32;;;;;;;12.87;11.37;;;16.60;99.90;;;17.65;66.75;94272.47;5087766;28;20261;-68
2021/06/19 01:44:13;;;;;;;14.03;11.10;;;16.50;99.90;;;17.59;67.18;94273.66;5086092;28;20199;-68
2021/06/19 01:46:45;;;;;;;14.20;10.87;;;16.50;99.90;;;17.56;67.38;94282.31;5087873;28;20187;-68
2021/06/19 01:49:11;;;;;;;13.03;11.67;;;16.50;99.90;;;17.57;67.33;94265.09;5080339;28;20209;-68
2021/06/19 01:51:42;;;;;;;17.07;12.40;;;16.50;99.90;;;17.58;67.29;94278.22;5071790;28;20245;-68
2021/06/19 01:54:09;;;;;;;17.83;13.07;;;16.50;99.90;;;17.56;67.48;94280.38;5080069;28;20201;-67
2021/06/19 01:56:35;;;;;;;16.77;13.30;;;16.50;99.90;;;17.55;67.59;94278.00;5087820;28;20264;-69
2021/06/19 01:59:05;;;;;;;13.77;12.00;;;16.50;99.90;;;17.57;67.71;94287.34;5083493;28;20627;-68
2021/06/19 02:01:33;;;;;;;14.63;13.10;;;16.50;99.90;;;17.59;67.98;94285.19;5105012;28;20196;-67
2021/06/19 02:03:59;;;;;;;15.97;12.77;;;16.50;99.90;;;17.59;68.16;94271.78;5069033;28;20227;-68
2021/06/19 02:06:25;;;;;;;15.07;13.30;;;16.50;99.90;;;17.55;68.03;94280.66;5086828;28;20228;-69
2021/06/19 02:09:08;;;;;;;17.80;13.60;;;16.50;99.90;;;17.66;68.06;94303.53;5069906;28;20188;-70
2021/06/19 02:11:35;;;;;;;19.67;14.07;;;16.50;99.90;;;17.69;68.19;94295.69;5085063;28;20548;-68
2021/06/19 02:14:07;;;;;;;15.83;13.73;;;16.50;99.90;;;17.72;68.29;94294.31;5068026;28;20222;-71
2021/06/19 02:16:36;;;;;;;14.93;12.70;;;16.50;99.90;;;17.68;68.43;94296.00;5103811;28;20272;-69
2021/06/19 02:19:02;;;;;;;13.80;12.13;;;16.60;99.90;;;17.62;68.44;94289.94;5085868;28;20282;-68
2021/06/19 02:21:30;;;;;;;14.03;11.73;;;16.50;99.90;;;17.58;68.55;94293.50;5086468;28;20654;-67
2021/06/19 02:24:01;;;;;;;15.03;12.03;;;16.20;99.90;;;17.51;68.48;94298.44;5070577;28;20532;-69
2021/06/19 02:26:27;;;;;;;18.13;13.70;;;16.40;99.90;;;17.50;68.54;94305.69;5087067;28;20794;-68
2021/06/19 02:28:55;;;;;;;15.77;13.43;;;16.40;99.90;;;17.55;68.78;94305.59;5067943;28;20243;-68
2021/06/19 02:31:22;;;;;;;19.90;14.93;;;16.40;99.90;;;17.58;68.94;94306.91;5085953;28;20202;-68
2021/06/19 02:33:49;;;;;;;18.37;14.67;;;16.50;99.90;;;17.67;68.94;94319.31;5069552;28;20208;-68
2021/06/19 02:36:16;;;;;;;20.07;14.40;;;16.50;99.90;;;17.77;69.05;94326.34;5086430;28;20215;-67
2021/06/19 02:38:42;;;;;;;17.03;14.17;;;16.60;99.90;;;17.84;69.07;94329.44;5084880;28;20194;-68
2021/06/19 02:41:08;;;;;;;17.37;13.97;;;16.60;99.90;;;17.90;69.04;94329.03;5086628;28;20596;-67
2021/06/19 02:43:34;;;;;;;17.77;12.67;;;16.70;99.90;;;18.00;69.31;94329.94;5068083;28;20306;-67
2021/06/19 02:46:01;;;;;;;14.40;12.53;;;16.80;99.90;;;18.09;69.25;94323.56;5070228;28;20214;-68
2021/06/19 02:48:28;;;;;;;15.73;12.87;;;16.90;99.90;;;18.08;69.30;94323.84;5086801;28;20203;-70
2021/06/19 02:50:57;;;;;;;14.43;11.23;;;16.90;99.90;;;18.08;69.64;94327.34;5084710;28;20192;-67
2021/06/19 02:53:23;;;;;;;13.97;10.93;;;17.00;99.90;;;18.12;69.81;94328.34;5085187;28;20201;-67
2021/06/19 02:55:49;;;;;;;11.83;10.63;;;17.00;99.90;;;18.15;69.88;94329.63;5070425;28;20209;-68
2021/06/19 02:58:16;;;;;;;15.00;10.97;;;17.00;99.90;;;18.12;69.39;94327.53;5068574;28;20938;-67
2021/06/19 03:00:43;;;;;;;14.93;12.17;;;17.00;99.90;;;18.10;70.07;94333.19;5080573;28;20199;-69
2021/06/19 03:03:09;;;;;;;14.03;12.10;;;17.00;99.90;;;18.21;70.07;94339.13;5069879;28;20227;-71
2021/06/19 03:05:38;;;;;;;16.27;11.93;;;17.10;99.90;;;18.20;70.00;94348.28;5068572;28;20219;-68
2021/06/19 03:08:05;;;;;;;15.63;12.60;;;17.10;99.90;;;18.24;70.32;94352.75;5086695;28;20201;-67
2021/06/19 03:10:35;;;;;;;15.43;12.30;;;17.10;99.90;;;18.21;70.21;94348.00;5084502;28;20204;-69
2021/06/19 03:13:01;;;;;;;15.27;12.23;;;17.20;99.90;;;18.31;70.24;94346.97;5086941;28;20582;-70
2021/06/19 03:15:28;;;;;;;13.37;12.03;;;17.20;99.90;;;18.35;70.18;94343.41;5066104;28;20197;-68
2021/06/19 03:17:54;;;;;;;15.73;12.10;;;17.20;99.90;;;18.39;70.31;94348.97;5087710;28;20239;-67
2021/06/19 03:20:21;;;;;;;14.57;13.07;;;17.30;99.90;;;18.42;70.18;94353.72;5067713;28;20192;-67
2021/06/19 03:22:54;;;;;;;13.43;12.03;;;17.40;99.90;;;18.48;70.52;94360.56;5087015;28;20182;-68
2021/06/19 03:25:30;;;;;;;13.40;11.93;;;17.40;99.90;;;18.53;70.70;94365.06;5084292;28;21479;-68
2021/06/19 03:28:00;;;;;;;17.67;12.77;;;17.40;99.90;;;18.60;70.57;94363.53;5062467;28;20190;-70
2021/06/19 03:30:30;;;;;;;14.27;12.30;;;17.50;99.90;;;18.67;70.44;94360.47;5080911;28;20528;-67
2021/06/19 03:32:56;;;;;;;12.93;11.63;;;17.60;99.90;;;18.69;70.55;94361.72;5085788;28;20284;-69
2021/06/19 03:35:23;;;;;;;17.00;12.23;;;17.60;99.90;;;18.71;70.61;94350.69;5085703;28;20274;-68
2021/06/19 03:37:53;;;;;;;14.17;12.57;;;17.60;99.90;;;18.74;70.91;94360.81;5069967;28;20205;-68
2021/06/19 03:40:20;;;;;;;15.93;11.77;;;17.60;99.90;;;18.77;70.85;94344.88;5084385;28;20185;-68
2021/06/19 03:42:51;;;;;;;15.37;13.43;;;17.70;99.90;;;18.76;70.69;94347.88;5086030;28;20624;-68
2021/06/19 03:45:29;;;;;;;13.63;12.23;;;17.70;99.90;;;18.83;70.87;94342.88;5084216;28;20189;-68
2021/06/19 03:47:58;;;;;;;15.13;12.37;;;17.70;99.90;;;18.87;70.90;94336.59;5084952;28;20195;-67
2021/06/19 03:50:30;;;;;;;13.50;12.10;;;17.80;99.90;;;18.94;70.92;94339.63;5084467;28;20201;-68
2021/06/19 03:52:58;;;;;;;12.83;11.60;;;17.80;99.90;;;19.02;71.31;94350.75;5084488;28;20202;-68
2021/06/19 03:55:26;;;;;;;16.10;11.73;;;17.90;99.90;;;19.01;71.03;94349.97;5070034;28;20180;-69
2021/06/19 03:57:54;;;;;;;15.17;11.67;;;17.90;99.90;;;19.13;71.13;94357.47;5072047;28;20324;-67
2021/06/19 04:00:21;;;;;;;12.57;11.27;;;18.00;99.90;;;19.13;71.08;94365.53;5087712;28;20214;-69
2021/06/19 04:02:50;;;;;;;14.07;11.60;;;18.10;99.90;;;19.15;71.33;94352.59;5081805;28;20202;-67
2021/06/19 04:05:16;;;;;;;12.97;11.37;;;18.10;99.90;;;19.12;71.31;94354.00;5068785;28;20205;-67
2021/06/19 04:07:46;;;;;;;13.30;12.00;;;18.00;99.90;;;19.23;71.50;94366.09;5088223;28;20216;-68
2021/06/19 04:10:14;;;;;;;15.97;11.80;;;18.10;99.90;;;19.37;71.46;94361.41;5071968;28;20193;-71
2021/06/19 04:12:41;;;;;;;13.73;11.87;;;18.30;99.90;;;19.43;71.57;94365.63;5088965;28;20884;-68
2021/06/19 04:15:11;;;;;;;13.40;11.43;;;18.30;99.90;;;19.50;71.38;94373.25;5070927;28;20204;-69
2021/06/19 04:17:40;;;;;;;12.60;11.30;;;18.40;99.90;;;19.49;71.42;94357.41;5070562;28;20226;-68
2021/06/19 04:20:12;;;;;;;14.67;11.90;;;18.40;99.90;;;19.56;71.64;94365.81;5072174;28;20484;-68
2021/06/19 04:22:39;;;;;;;13.17;10.93;;;18.50;99.90;;;19.57;71.70;94357.47;5087875;28;20193;-71
2021/06/19 04:25:07;;;;;;;12.07;10.73;;;18.50;99.90;;;19.66;71.73;94366.34;5070123;28;20628;-71
2021/06/19 04:27:53;;;;;;;14.10;12.10;;;18.60;99.90;;;19.70;71.93;94361.16;5088002;28;20181;-68
2021/06/19 04:30:22;;;;;;;15.50;11.73;;;18.70;99.90;;;19.51;71.83;94372.13;5089167;28;20181;-68
2021/06/19 04:32:49;;;;;;;14.30;11.80;;;18.50;99.90;;;19.50;71.69;94375.13;5087808;28;20204;-70
2021/06/19 04:35:16;;;;;;;13.33;11.93;;;18.50;99.90;;;19.57;71.80;94387.03;5087906;28;20221;-68
2021/06/19 04:37:43;;;;;;;14.80;12.07;;;18.50;99.90;;;19.67;72.00;94391.38;5072959;28;20562;-68
2021/06/19 04:43:07;;;;;;;15.63;11.90;;;17.00;99.90;;;20.12;71.94;94395.50;5014555;28;20664;-68
2021/06/19 04:45:36;;;;;;;18.63;11.50;;;18.90;99.90;;;20.22;72.06;94384.44;5028796;28;20208;-68
2021/06/19 04:48:06;;;;;;;13.23;11.03;;;19.20;99.90;;;20.38;71.85;94393.72;4994809;28;20691;-68
2021/06/19 04:50:35;;;;;;;13.97;10.53;;;19.30;99.90;;;20.55;72.00;94390.25;5022590;28;20235;-68
2021/06/19 04:53:04;;;;;;;10.63;9.53;;;19.40;99.90;;;20.54;71.98;94372.53;4994675;28;20188;-69
2021/06/19 04:55:31;;;;;;;12.97;10.00;;;19.50;99.90;;;20.67;72.20;94370.78;5011084;28;20197;-70
2021/06/19 04:57:58;;;;;;;12.17;10.90;;;19.70;99.90;;;20.77;72.04;94383.97;5012761;28;20554;-68
2021/06/19 05:00:32;;;;;;;14.50;10.90;;;19.80;99.90;;;20.96;71.95;94379.03;5003325;28;20660;-71
2021/06/19 05:03:01;;;;;;;15.47;9.93;;;20.00;99.90;;;21.03;72.01;94365.88;5012309;28;20199;-68
2021/06/19 05:05:28;;;;;;;11.40;9.00;;;20.10;99.90;;;21.22;71.88;94369.06;5008921;28;20223;-68
2021/06/19 05:07:55;;;;;;;11.83;9.63;;;20.20;99.90;;;21.12;71.95;94377.47;5025380;28;20196;-69
2021/06/19 05:10:21;;;;;;;10.87;9.70;;;20.20;99.90;;;21.12;71.88;94379.41;5024201;28;20205;-69
2021/06/19 05:12:47;;;;;;;13.27;9.83;;;20.20;99.90;;;21.40;72.22;94380.63;5012173;28;20220;-68
2021/06/19 05:15:23;;;;;;;11.60;9.13;;;20.40;99.90;;;21.56;71.98;94381.69;5008615;28;20202;-69
2021/06/19 05:17:50;;;;;;;13.07;9.83;;;20.60;99.90;;;21.72;71.73;94382.78;5008241;28;20219;-68
2021/06/19 05:20:16;;;;;;;10.37;8.87;;;20.80;99.90;;;21.88;71.96;94389.25;5041200;28;20263;-67
2021/06/19 05:22:42;;;;;;;11.20;9.03;;;20.90;99.90;;;21.96;71.87;94387.63;5066758;28;20187;-69
2021/06/19 05:25:10;;;;;;;10.77;8.50;;;21.00;99.90;;;22.12;71.63;94377.13;5066966;28;20226;-68
2021/06/19 05:27:36;;;;;;;13.27;9.33;;;21.20;99.90;;;22.21;72.01;94383.25;5071772;28;20199;-70
2021/06/19 05:30:04;;;;;;;9.73;8.83;;;21.40;99.90;;;22.47;71.94;94387.41;5049218;28;20190;-70
2021/06/19 05:32:32;;;;;;;11.60;8.33;;;21.60;99.90;;;22.87;71.71;94392.44;5067022;28;20190;-71
2021/06/19 05:34:59;;;;;;;11.80;8.30;;;22.00;99.90;;;23.29;71.69;94395.91;5067284;28;20230;-68
2021/06/19 05:37:25;;;;;;;9.23;8.33;;;22.40;99.90;;;23.54;71.41;94383.31;5096783;28;20229;-70
2021/06/19 05:39:53;;;;;;;10.37;7.87;;;22.50;99.90;;;23.70;71.78;94376.13;5087830;28;20189;-70
2021/06/19 05:42:22;;;;;;;11.47;8.43;;;23.00;99.90;;;24.09;71.24;94393.69;5064858;28;20196;-70
2021/06/19 05:44:57;;;;;;;8.67;7.87;;;23.40;99.90;;;24.42;71.36;94419.59;5085308;28;20185;-71
2021/06/19 05:47:23;;;;;;;8.67;7.83;;;23.70;99.90;;;24.86;71.09;94403.56;5080013;28;20268;-69
2021/06/19 05:49:49;;;;;;;10.07;8.13;;;24.10;99.90;;;24.95;71.19;94406.94;5079806;28;20281;-70
2021/06/19 05:52:15;;;;;;;9.00;7.33;;;24.30;99.90;;;25.56;70.78;94388.56;5081426;28;20649;-69
2021/06/19 05:54:41;;;;;;;9.40;7.30;;;25.00;99.90;;;26.00;70.34;94430.09;5081594;28;20733;-71
2021/06/19 05:57:08;;;;;;;12.20;7.90;;;25.40;99.90;;;25.79;70.27;94391.50;5083088;28;20225;-70
2021/06/19 05:59:36;;;;;;;11.10;7.60;;;25.40;99.90;;;26.08;70.19;94402.00;5083751;28;20259;-71
2021/06/19 06:02:05;;;;;;;10.07;7.63;;;25.80;99.90;;;26.58;70.01;94403.25;5054982;28;20520;-72
2021/06/19 06:04:33;;;;;;;8.97;7.13;;;26.20;99.90;;;27.05;69.59;94390.38;5082637;28;20522;-68
2021/06/19 06:06:59;;;;;;;10.10;6.97;;;26.70;99.90;;;27.63;69.27;94391.22;5064016;28;20187;-71
2021/06/19 06:09:27;;;;;;;7.87;6.53;;;27.20;99.90;;;27.74;69.38;94378.56;5066443;28;20562;-69
2021/06/19 06:11:53;;;;;;;9.73;7.10;;;27.50;99.90;;;28.33;68.78;94386.28;5066459;28;20190;-69
2021/06/19 06:14:19;;;;;;;7.50;6.80;;;28.20;99.90;;;29.02;68.91;94404.13;5084854;28;20309;-68
2021/06/19 06:16:45;;;;;;;9.17;6.77;;;28.80;99.90;;;29.40;68.58;94355.91;5081156;28;20217;-71
2021/06/19 06:19:11;;;;;;;7.43;6.73;;;29.30;99.90;;;29.48;68.86;94344.66;5083406;28;20186;-69
2021/06/19 06:21:37;;;;;;;9.10;7.27;;;29.70;99.90;;;29.90;68.02;94379.91;5065493;28;20186;-70
2021/06/19 06:24:04;;;;;;;11.63;7.10;;;30.00;99.90;;;29.74;67.87;94275.47;5082177;28;20614;-72
2021/06/19 06:26:30;;;;;;;11.93;7.40;;;30.00;99.90;;;29.20;67.69;94341.56;5062009;28;20194;-68
2021/06/19 06:28:56;;;;;;;8.60;6.77;;;29.50;99.90;;;29.15;67.57;94332.91;5068002;28;20190;-68
2021/06/19 06:31:23;;;;;;;9.83;6.93;;;29.60;99.90;;;29.45;66.93;94356.34;5083230;28;20791;-70
2021/06/19 06:33:50;;;;;;;8.43;6.83;;;29.70;99.90;;;29.74;66.99;94351.22;5065908;28;20548;-70
2021/06/19 06:36:16;;;;;;;9.17;6.57;;;30.00;99.90;;;29.74;66.53;94343.00;5086028;28;20573;-70
2021/06/19 06:38:42;;;;;;;10.20;7.20;;;30.00;99.90;;;29.46;66.46;94314.22;5051039;28;20198;-71
2021/06/19 06:41:11;;;;;;;8.87;7.07;;;29.90;99.90;;;29.24;66.69;94300.66;5050386;28;20297;-69
2021/06/19 06:43:37;;;;;;;11.37;7.30;;;29.80;99.90;;;28.73;66.04;94347.56;5063925;28;20198;-72
2021/06/19 06:46:03;;;;;;;9.17;7.27;;;29.30;99.90;;;28.64;65.67;94340.78;5065045;28;20275;-71
2021/06/19 06:48:31;;;;;;;11.73;7.60;;;29.00;99.90;;;29.00;65.34;94364.72;5079803;28;20284;-70
2021/06/19 06:50:57;;;;;;;10.07;7.53;;;29.20;99.90;;;29.81;65.00;94375.88;5083127;28;20206;-69
2021/06/19 06:53:24;;;;;;;11.60;7.97;;;29.70;99.90;;;29.23;65.43;94353.69;5063891;28;20209;-70
2021/06/19 06:55:52;;;;;;;14.17;8.17;;;29.30;99.90;;;28.13;64.92;94302.97;5085517;28;20549;-68
2021/06/19 06:58:17;;;;;;;12.17;8.93;;;28.30;99.90;;;27.87;64.78;94306.38;5080522;28;20210;-70
2021/06/19 07:00:43;;;;;;;13.33;8.60;;;27.80;99.90;;;28.36;64.93;94355.53;5082923;28;20199;-69
2021/06/19 07:03:09;;;;;;;12.27;8.47;;;28.10;99.90;;;28.72;64.46;94326.88;5077555;28;20193;-74
2021/06/19 07:05:35;;;;;;;12.07;8.00;;;28.40;99.90;;;29.13;64.29;94366.06;5066982;28;20182;-69
2021/06/19 07:08:01;;;;;;;12.10;8.30;;;28.70;99.90;;;29.40;64.50;94351.22;5067200;28;21174;-70
2021/06/19 07:10:29;;;;;;;15.47;7.97;;;29.10;99.90;;;29.54;63.83;94383.38;5084613;28;22142;-71
2021/06/19 07:12:56;;;;;;;15.03;8.00;;;29.30;99.90;;;29.53;64.18;94327.16;5064774;28;20637;-72
2021/06/19 07:15:22;;;;;;;10.27;7.60;;;29.30;99.90;;;29.06;64.01;94374.16;5083026;28;20198;-73
2021/06/19 07:17:51;;;;;;;13.20;7.73;;;28.80;99.90;;;29.36;63.72;94385.91;5081270;28;20228;-72
2021/06/19 07:20:21;;;;;;;12.67;7.53;;;28.80;99.90;;;29.55;62.87;94341.22;5080551;28;20195;-70
2021/06/19 07:22:48;;;;;;;11.40;8.00;;;29.00;99.90;;;30.05;62.91;94378.13;5050379;28;20190;-67
2021/06/19 07:25:14;;;;;;;10.33;7.47;;;29.30;99.90;;;30.02;62.50;94330.41;5066669;28;20183;-68
2021/06/19 07:27:46;;;;;;;12.27;7.30;;;29.50;99.90;;;30.57;62.71;94335.19;5066012;28;20562;-68
2021/06/19 07:30:15;;;;;;;8.80;7.57;;;30.10;99.90;;;31.05;62.20;94391.50;5066309;28;20848;-67
2021/06/19 07:32:43;;;;;;;11.03;6.90;;;30.70;99.90;;;31.80;61.89;94387.16;5100172;28;20675;-67
2021/06/19 07:35:09;;;;;;;10.50;7.73;;;31.50;99.90;;;32.63;61.32;94357.56;5085517;28;21878;-68
2021/06/19 07:37:36;;;;;;;11.40;6.73;;;32.40;99.90;;;33.19;60.79;94375.94;5071421;28;20206;-67
2021/06/19 07:40:05;;;;;;;10.67;7.03;;;33.10;99.90;;;33.95;60.58;94376.06;5068984;28;20193;-71
2021/06/19 07:42:33;;;;;;;8.80;7.07;;;34.10;99.90;;;33.12;60.60;94290.78;5086989;28;20183;-73
2021/06/19 07:45:02;;;;;;;10.00;6.67;;;33.70;99.90;;;32.72;60.23;94286.53;5064085;28;20230;-70
2021/06/19 07:47:28;;;;;;;8.87;6.83;;;33.30;99.90;;;32.97;59.54;94388.91;5081191;28;20203;-71
2021/06/19 07:49:56;;;;;;;9.90;7.13;;;33.40;99.90;;;32.96;59.82;94296.69;5086153;28;20195;-73
2021/06/19 07:52:24;;;;;;;9.00;7.30;;;33.70;99.90;;;32.59;59.13;94249.69;5085554;28;20597;-70
2021/06/19 07:54:54;;;;;;;11.17;7.17;;;33.50;99.90;;;32.41;59.37;94345.75;5083389;28;20267;-70
2021/06/19 07:57:20;;;;;;;7.85;6.40;;;33.00;99.90;;;33.51;58.79;94376.63;5067500;28;20301;-70
2021/06/19 07:59:46;;;;;;;11.50;6.90;;;33.80;99.90;;;33.33;58.20;94263.22;5084020;28;20293;-72
2021/06/19 08:02:12;;;;;;;13.52;7.20;;;33.90;99.90;;;33.98;57.75;94316.72;5085823;28;20191;-71
2021/06/19 08:04:38;;;;;;;11.70;7.30;;;34.50;99.90;;;34.23;57.33;94325.59;5086162;28;20195;-73
2021/06/19 08:07:05;;;;;;;8.43;7.50;;;34.60;99.90;;;35.16;57.32;94370.47;5104753;28;20190;-73
2021/06/19 08:09:32;;;;;;;9.23;7.05;;;35.40;99.90;;;35.35;57.00;94298.19;5080020;28;20228;-73
2021/06/19 08:11:59;;;;;;;12.50;7.80;;;35.90;99.90;;;35.34;56.80;94277.31;5067608;28;20197;-72
2021/06/19 08:14:27;;;;;;;10.93;7.85;;;36.00;99.70;;;35.71;56.35;94345.44;5086066;28;20213;-72
2021/06/19 08:17:04;;;;;;;12.55;7.20;;;36.30;99.90;;;35.73;55.68;94191.28;5085798;28;20210;-72
2021/06/19 08:19:30;;;;;;;14.95;7.88;;;36.70;99.90;;;34.55;56.04;94270.28;5083074;28;20209;-72
2021/06/19 08:21:56;;;;;;;14.05;7.20;;;35.60;99.90;;;36.16;55.33;94379.19;5088212;28;20213;-71
2021/06/19 08:24:22;;;;;;;10.43;7.32;;;36.80;99.90;;;36.88;54.94;94286.47;5082428;28;20193;-71
2021/06/19 08:26:48;;;;;;;14.00;8.05;;;37.60;96.50;;;37.42;54.55;94350.66;5069903;28;20657;-71
2021/06/19 08:29:14;;;;;;;13.30;7.32;;;37.90;94.80;;;37.09;53.69;94270.72;5082641;28;20194;-71
2021/06/19 08:31:41;;;;;;;9.68;6.95;;;37.80;94.20;;;37.06;53.49;94230.88;5083432;28;20194;-73
2021/06/19 08:34:08;;;;;;;11.13;6.95;;;38.00;92.90;;;37.26;53.30;94298.03;5067670;28;20263;-72
2021/06/19 08:36:34;;;;;;;12.98;6.70;;;38.30;91.80;;;36.79;53.00;94263.34;5084485;28;20214;-72
2021/06/19 08:39:01;;;;;;;11.88;7.80;;;38.20;91.40;;;36.49;52.68;94223.59;5070683;28;20247;-72
2021/06/19 08:41:28;;;;;;;18.17;7.47;;;37.80;91.60;;;35.30;52.65;94184.78;5081326;28;20251;-70
2021/06/19 08:43:54;;;;;;;13.60;7.38;;;36.80;92.30;;;35.55;52.13;94214.81;5085879;28;20224;-71
2021/06/19 08:46:22;;;;;;;10.98;7.10;;;36.80;93.40;;;34.32;52.17;94181.97;5066489;28;20186;-72
2021/06/19 08:48:57;;;;;;;12.93;7.03;;;35.60;93.90;;;34.57;52.36;94196.28;5085649;28;20281;-72
2021/06/19 08:51:26;;;;;;;8.85;6.38;;;35.70;94.40;;;34.43;52.17;94199.94;5066668;28;20197;-71
2021/06/19 08:53:52;;;;;;;12.57;6.47;;;35.30;94.40;;;34.89;51.77;94184.91;5070927;28;20201;-73
2021/06/19 08:56:20;;;;;;;8.75;5.80;;;35.70;93.50;;;35.92;51.36;94236.75;5062865;28;20321;-71
2021/06/19 08:58:46;;;;;;;11.05;6.07;;;36.60;92.70;;;35.01;50.98;94207.22;5068634;28;20241;-71
2021/06/19 09:01:12;;;;;;;12.68;7.00;;;35.90;90.70;;;34.79;51.06;94180.28;5065979;28;20182;-70
2021/06/19 09:03:39;;;;;;;17.80;9.43;;;35.60;91.10;;;34.46;50.78;94157.03;5082219;28;20198;-74
2021/06/19 09:06:27;;;;;;;12.30;6.80;;;35.30;93.50;;;36.07;50.19;94260.19;5078290;28;20290;-72
2021/06/19 09:09:20;;;;;;;10.68;6.38;;;36.70;92.10;;;36.42;49.61;94215.44;5083547;28;20186;-71
2021/06/19 09:11:52;;;;;;;13.38;6.93;;;37.30;89.90;;;36.31;49.79;94150.53;5084534;28;20184;-73
2021/06/19 09:14:26;;;;;;;13.52;6.50;;;37.40;91.80;;;36.77;49.63;94169.78;5086041;28;20190;-72
2021/06/19 09:17:08;;;;;;;12.65;6.68;;;37.80;91.60;;;35.72;49.34;94217.34;5066828;28;20673;-73
2021/06/19 09:19:35;;;;;;;10.65;6.15;;;36.80;92.30;;;36.54;48.84;94197.47;5066325;28;20210;-72
2021/06/19 09:22:23;;;;;;;11.88;6.72;;;37.30;88.80;;;35.22;48.77;94117.97;5079018;28;20281;-71
2021/06/19 09:24:58;;;;;;;15.48;6.57;;;36.30;87.30;;;35.40;47.98;94216.97;5085217;28;20197;-71
2021/06/19 09:27:46;;;;;;;15.20;6.60;;;36.20;90.40;;;36.46;47.89;94194.06;5079444;28;20204;-70
2021/06/19 09:30:21;;;;;;;14.70;6.75;;;37.00;87.90;;;35.42;47.81;94118.84;5098610;28;20251;-70
2021/06/19 09:33:00;;;;;;;10.38;6.28;;;36.20;85.70;;;35.22;47.46;94199.91;5084273;28;20202;-71
2021/06/19 09:35:35;;;;;;;12.52;6.60;;;35.70;90.90;;;35.87;47.52;94148.88;5079015;28;20310;-71
2021/06/19 09:38:16;;;;;;;14.10;6.60;;;36.70;87.40;;;35.77;46.92;94188.47;5084888;28;20213;-72
2021/06/19 09:40:46;;;;;;;14.70;6.68;;;36.40;88.30;;;35.84;46.83;94169.03;5070154;28;20576;-72
2021/06/19 09:43:25;;;;;;;13.30;7.22;;;36.60;82.80;;;35.53;46.87;94119.44;5081686;28;20191;-72
2021/06/19 09:46:10;;;;;;;16.73;6.50;;;36.40;84.50;;;36.37;46.28;94215.13;5084108;28;20178;-71
2021/06/19 09:48:46;;;;;;;11.40;7.15;;;36.90;85.40;;;36.40;46.20;94167.31;5096832;28;20834;-71
2021/06/19 09:51:24;;;;;;;12.73;6.80;;;37.10;83.30;;;36.34;45.80;94175.31;5082098;28;20222;-70
2021/06/19 09:54:06;;;;;;;12.48;7.00;;;37.20;81.90;;;36.59;45.72;94188.72;5065815;28;20216;-70
2021/06/19 09:56:56;;;;;;;16.48;6.88;;;37.40;82.50;;;37.63;45.55;94244.31;5081504;28;20716;-69
2021/06/19 09:59:31;;;;;;;14.60;6.82;;;38.50;81.90;;;36.80;45.63;94146.81;5066729;28;20930;-69
2021/06/19 10:02:30;;;;;;;14.32;6.90;;;38.00;78.70;;;36.81;44.81;94206.44;5082346;28;20188;-69
2021/06/19 10:04:57;;;;;;;13.07;6.50;;;37.70;78.50;;;37.62;44.99;94134.03;5071549;28;20585;-68
2021/06/19 10:07:28;;;;;;;9.98;7.00;;;38.50;81.80;;;38.56;44.17;94185.50;5090140;28;20199;-70
2021/06/19 10:09:57;;;;;;;15.55;7.13;;;39.60;81.30;;;39.64;44.19;94216.16;5081528;28;20190;-70
2021/06/19 10:12:26;;;;;;;11.85;6.88;;;40.80;73.10;;;40.30;43.38;94228.41;5083317;28;20187;-70
2021/06/19 10:15:00;;;;;;;14.25;6.78;;;41.50;71.00;;;40.17;43.09;94170.06;5084470;28;20191;-70
2021/06/19 10:17:46;;;;;;;11.80;6.32;;;41.90;73.00;;;39.30;43.54;94127.97;5063106;28;20305;-69
2021/06/19 10:20:16;;;;;;;12.23;6.95;;;41.20;70.70;;;39.35;42.41;94130.22;5100357;28;20186;-70
2021/06/19 10:22:47;;;;;;;13.57;6.38;;;41.10;70.80;;;38.57;43.10;94047.72;5067840;28;20197;-69